Time;durP1;ratioP1;P1;durP2;ratioP2;P2;SDS_P1;SDS_P2;PMS_P1;PMS_P2;Temp;Humidity;BMP_temperature;BMP_pressure;BME280_temperature;BME280_humidity;BME280_pressure;Samples;Min_cycle;Max_cycle;Signal;HPM_P1;HPM_P2
2023/12/24 00:04:00;;;;;;;6.30;3.00;;;;;;;18.92;52.93;95684.34;21213199;27;20400;-57
2023/12/24 00:14:20;;;;;;;4.18;2.50;;;;;;;18.91;53.06;95698.97;21177180;27;20051;-57
2023/12/24 00:24:41;;;;;;;3.58;2.33;;;;;;;18.88;52.95;95692.34;21172278;27;20051;-56
2023/12/24 00:35:01;;;;;;;3.17;2.25;;;;;;;18.85;53.06;95698.41;21163244;27;20055;-57
2023/12/24 00:45:20;;;;;;;5.53;2.58;;;;;;;18.83;53.25;95700.69;21164504;27;20067;-56
2023/12/24 00:55:41;;;;;;;3.97;2.50;;;;;;;18.78;53.16;95701.69;21184831;27;20058;-57
2023/12/24 01:06:01;;;;;;;5.45;2.40;;;;;;;18.76;53.19;95703.19;21183163;27;20047;-57
2023/12/24 01:16:20;;;;;;;2.60;2.10;;;;;;;18.73;53.24;95717.34;21195962;27;20047;-49
2023/12/24 01:26:41;;;;;;;3.33;2.33;;;;;;;18.71;53.09;95715.00;21154042;27;20411;-50
2023/12/24 01:37:00;;;;;;;3.30;2.17;;;;;;;18.68;53.20;95721.09;21146433;27;20678;-47
2023/12/24 01:47:20;;;;;;;3.70;2.28;;;;;;;18.68;53.19;95729.19;21190213;27;20043;-49
2023/12/24 01:57:40;;;;;;;3.55;2.10;;;;;;;18.67;53.28;95733.00;21180071;27;20092;-52
2023/12/24 02:08:00;;;;;;;2.75;1.83;;;;;;;18.62;53.14;95740.53;21170327;27;20047;-47
2023/12/24 02:18:21;;;;;;;2.47;1.90;;;;;;;18.62;53.30;95746.75;21193085;27;20055;-49
2023/12/24 02:28:42;;;;;;;2.65;2.05;;;;;;;18.59;53.24;95750.13;21174612;27;20051;-51
2023/12/24 02:39:02;;;;;;;2.35;1.60;;;;;;;18.56;53.13;95751.59;21145430;28;20047;-51
2023/12/24 02:49:21;;;;;;;3.38;1.80;;;;;;;18.55;53.10;95768.91;21184017;28;20446;-49
2023/12/24 02:59:42;;;;;;;3.00;1.55;;;;;;;18.52;53.12;95758.00;21157815;28;20039;-50
2023/12/24 03:10:01;;;;;;;1.70;1.50;;;;;;;18.50;53.07;95765.66;21164314;28;20047;-56
2023/12/24 03:20:21;;;;;;;2.60;1.63;;;;;;;18.47;52.97;95769.81;21184483;27;20046;-57
2023/12/24 03:30:40;;;;;;;1.50;1.27;;;;;;;18.46;53.18;95770.16;21163913;27;20063;-56
2023/12/24 03:40:59;;;;;;;1.95;1.40;;;;;;;18.43;52.91;95778.94;21183047;27;20428;-56
2023/12/24 03:51:20;;;;;;;1.75;1.40;;;;;;;18.43;53.11;95776.25;21205399;27;20092;-56
2023/12/24 04:01:39;;;;;;;2.38;1.58;;;;;;;18.40;52.97;95782.31;21170999;27;20059;-53
2023/12/24 04:11:59;;;;;;;2.05;1.40;;;;;;;18.38;53.19;95769.97;21171141;27;20047;-55
2023/12/24 04:22:19;;;;;;;2.33;1.50;;;;;;;18.37;53.09;95768.38;21181805;27;20629;-55
2023/12/24 04:32:38;;;;;;;3.70;1.30;;;;;;;18.35;53.12;95770.66;21192523;27;20059;-57
2023/12/24 04:42:58;;;;;;;1.88;1.23;;;;;;;18.32;52.97;95765.91;21182257;27;20047;-56
2023/12/24 04:53:18;;;;;;;1.50;1.10;;;;;;;18.31;52.87;95758.19;21182418;27;20531;-56
2023/12/24 05:03:37;;;;;;;1.77;1.38;;;;;;;18.28;52.95;95765.03;21130202;27;20051;-56
2023/12/24 05:13:59;;;;;;;4.38;1.20;;;;;;;18.28;52.90;95777.72;21180173;27;20044;-57
2023/12/24 05:24:19;;;;;;;1.33;1.17;;;;;;;18.25;53.03;95768.44;21154767;27;20040;-56
2023/12/24 05:34:39;;;;;;;1.65;1.30;;;;;;;18.23;52.95;95778.75;21199776;27;20047;-57
2023/12/24 05:44:58;;;;;;;1.42;1.10;;;;;;;18.24;53.03;95776.84;21182154;27;20095;-57
2023/12/24 05:55:17;;;;;;;1.15;1.05;;;;;;;18.20;53.00;95771.34;21211708;27;20050;-57
2023/12/24 06:05:37;;;;;;;1.58;0.98;;;;;;;18.18;52.99;95777.06;21124204;27;20051;-57
2023/12/24 06:15:57;;;;;;;1.40;0.98;;;;;;;18.21;52.96;95780.22;21165527;27;20489;-57
2023/12/24 06:26:16;;;;;;;1.20;1.08;;;;;;;18.21;52.91;95791.00;21152274;27;20051;-56
2023/12/24 06:36:35;;;;;;;1.20;1.00;;;;;;;18.26;52.81;95810.41;21201351;27;20496;-50
2023/12/24 06:46:55;;;;;;;1.00;0.90;;;;;;;18.30;52.84;95795.13;21196039;27;20055;-49
2023/12/24 06:57:14;;;;;;;1.15;0.90;;;;;;;18.35;52.45;95797.59;21153785;27;20043;-49
2023/12/24 07:07:33;;;;;;;1.15;1.02;;;;;;;18.43;52.35;95803.22;21182668;27;20040;-49
2023/12/24 07:17:53;;;;;;;2.65;0.82;;;;;;;18.47;52.33;95804.09;21138981;28;20047;-47
2023/12/24 07:28:12;;;;;;;1.38;0.90;;;;;;;18.55;51.95;95813.97;21146130;27;20039;-49
2023/12/24 07:38:31;;;;;;;0.93;0.80;;;;;;;18.56;51.91;95835.22;21155728;28;20044;-47
2023/12/24 07:48:51;;;;;;;1.23;0.80;;;;;;;18.68;51.71;95833.59;21156882;28;20415;-48
2023/12/24 07:59:10;;;;;;;1.88;0.90;;;;;;;18.70;51.36;95829.44;21155741;28;20124;-50
2023/12/24 08:09:29;;;;;;;1.38;0.70;;;;;;;18.82;51.37;95825.16;21148752;27;20051;-50
2023/12/24 08:19:49;;;;;;;3.47;1.10;;;;;;;18.89;51.77;95791.03;21166026;27;20047;-45
2023/12/24 08:30:08;;;;;;;1.23;0.70;;;;;;;18.91;52.13;95812.31;21147574;27;20075;-48
2023/12/24 08:40:28;;;;;;;1.42;0.70;;;;;;;19.01;52.54;95811.81;21138025;27;20044;-47
2023/12/24 08:50:48;;;;;;;0.85;0.70;;;;;;;19.06;52.34;95811.56;21174537;27;20035;-46
2023/12/24 09:01:07;;;;;;;1.92;0.75;;;;;;;19.16;52.00;95826.47;21139913;27;20494;-48
2023/12/24 09:11:26;;;;;;;1.35;0.80;;;;;;;19.22;51.60;95833.19;21131199;27;20056;-49
2023/12/24 09:21:46;;;;;;;2.70;0.80;;;;;;;19.27;51.07;95838.34;21158649;27;20104;-49
2023/12/24 09:32:05;;;;;;;3.70;0.90;;;;;;;19.30;51.21;95856.56;21140525;27;20043;-50
2023/12/24 09:42:25;;;;;;;2.72;1.08;;;;;;;19.39;51.23;95847.53;21141764;27;20047;-49
2023/12/24 09:52:46;;;;;;;2.45;0.65;;;;;;;19.48;51.94;95854.34;21128988;27;20062;-50
2023/12/24 10:03:06;;;;;;;1.25;0.70;;;;;;;19.60;52.36;95858.91;21106063;27;20047;-54
2023/12/24 10:13:26;;;;;;;4.30;1.00;;;;;;;19.65;52.61;95855.16;21166251;27;20077;-53
2023/12/24 10:23:45;;;;;;;3.78;0.73;;;;;;;19.75;52.14;95844.63;21128112;27;20048;-57
2023/12/24 10:34:05;;;;;;;4.75;0.75;;;;;;;19.82;51.26;95827.03;21151982;27;20044;-53
2023/12/24 10:44:25;;;;;;;4.00;0.80;;;;;;;19.87;54.47;95843.75;21116373;28;20102;-47
2023/12/24 10:54:45;;;;;;;3.90;0.80;;;;;;;19.87;56.05;95832.16;21159083;27;20491;-56
2023/12/24 11:05:05;;;;;;;5.90;0.80;;;;;;;19.90;55.09;95820.66;21116013;28;20052;-63
2023/12/24 11:15:45;;;;;;;7.10;1.10;;;;;;;19.91;54.03;95809.47;21113855;28;20043;-57
2023/12/24 11:26:33;;;;;;;5.05;0.82;;;;;;;19.99;52.98;95815.06;21117099;28;20044;-58
2023/12/24 11:37:05;;;;;;;1.45;0.60;;;;;;;20.03;52.40;95802.41;21144362;27;20056;-60
2023/12/24 11:47:25;;;;;;;2.95;0.60;;;;;;;20.15;48.13;95803.09;21146637;27;20058;-59
2023/12/24 11:57:45;;;;;;;42.60;11.60;;;;;;;20.43;61.81;95787.84;21139081;27;20098;-58
2023/12/24 12:08:05;;;;;;;6.47;2.88;;;;;;;18.30;47.05;95784.34;21152811;27;20112;-60
2023/12/24 12:18:24;;;;;;;9.77;2.88;;;;;;;18.80;49.83;95784.22;21204399;27;20051;-60
2023/12/24 12:28:44;;;;;;;13.77;2.33;;;;;;;19.95;50.37;95790.66;21200120;27;20055;-53
2023/12/24 12:39:05;;;;;;;5.13;2.22;;;;;;;20.28;51.35;95792.94;21123889;27;20059;-54
2023/12/24 12:49:25;;;;;;;12.90;2.47;;;;;;;20.39;52.51;95795.13;21145259;27;20051;-55
2023/12/24 12:59:45;;;;;;;14.68;2.00;;;;;;;20.41;52.00;95803.66;21139984;27;20066;-55
2023/12/24 13:10:05;;;;;;;3.60;1.10;;;;;;;20.20;42.87;95793.91;21164073;27;20047;-52
2023/12/24 13:20:24;;;;;;;5.60;2.20;;;;;;;20.08;46.30;95794.81;21160171;27;20423;-51
2023/12/24 13:30:44;;;;;;;11.02;2.85;;;;;;;20.21;46.92;95806.31;21139368;27;20051;-52
2023/12/24 13:41:04;;;;;;;10.60;2.60;;;;;;;20.36;47.38;95802.00;21144779;27;20051;-59
2023/12/24 13:51:26;;;;;;;12.85;3.33;;;;;;;20.46;48.21;95809.56;21112706;28;20059;-59
2023/12/24 14:01:45;;;;;;;5.45;2.20;;;;;;;20.36;45.11;95777.66;21123132;27;20070;-59
2023/12/24 14:12:06;;;;;;;10.65;2.95;;;;;;;20.42;47.06;95759.22;21124178;27;20040;-57
2023/12/24 14:22:25;;;;;;;8.73;2.50;;;;;;;20.48;47.96;95768.63;21126964;28;20047;-57
2023/12/24 14:32:45;;;;;;;8.23;3.17;;;;;;;20.54;49.06;95768.00;21113997;27;20056;-57
2023/12/24 14:43:04;;;;;;;5.75;2.53;;;;;;;20.66;49.41;95783.34;21117980;28;20420;-58
2023/12/24 14:53:24;;;;;;;5.22;2.03;;;;;;;20.58;49.71;95784.31;21121435;28;20113;-53
2023/12/24 15:03:43;;;;;;;5.53;1.90;;;;;;;20.57;50.27;95779.25;21133550;28;20054;-52
2023/12/24 15:14:02;;;;;;;6.30;2.00;;;;;;;20.57;50.07;95771.13;21173467;27;20487;-52
2023/12/24 15:24:22;;;;;;;3.45;1.58;;;;;;;20.44;48.92;95748.84;21141572;27;20047;-53
2023/12/24 15:34:44;;;;;;;4.13;1.70;;;;;;;20.53;49.06;95731.25;21126021;27;20063;-54
2023/12/24 15:45:04;;;;;;;4.38;1.70;;;;;;;20.63;49.61;95708.28;21167173;27;20043;-54
2023/12/24 15:55:24;;;;;;;18.85;2.05;;;;;;;20.68;50.43;95718.03;21147334;27;20051;-63
2023/12/24 16:05:43;;;;;;;10.90;2.10;;;;;;;20.72;50.25;95700.72;21144103;27;20416;-60
2023/12/24 16:16:03;;;;;;;15.45;2.88;;;;;;;20.86;53.02;95694.78;21163563;27;20051;-58
2023/12/24 16:26:23;;;;;;;13.15;2.30;;;;;;;20.99;55.08;95679.16;21154372;27;20039;-60
2023/12/24 16:36:44;;;;;;;18.48;2.53;;;;;;;21.03;56.56;95698.16;21134562;27;20515;-62
2023/12/24 16:47:04;;;;;;;5.78;0.93;;;;;;;20.64;46.35;95688.22;21184405;27;20051;-59
2023/12/24 16:57:23;;;;;;;11.88;1.75;;;;;;;20.64;50.71;95696.31;21159776;27;20068;-55
2023/12/24 17:07:43;;;;;;;15.27;2.05;;;;;;;20.94;52.04;95701.13;21149966;27;20047;-57
2023/12/24 17:18:03;;;;;;;5.05;0.70;;;;;;;20.53;43.94;95692.59;21157575;27;20055;-60
2023/12/24 17:28:22;;;;;;;18.23;1.70;;;;;;;20.64;49.32;95671.97;21138064;27;20046;-56
2023/12/24 17:38:42;;;;;;;15.60;1.98;;;;;;;20.84;50.61;95675.41;21141072;27;20291;-54
2023/12/24 17:49:02;;;;;;;10.57;1.50;;;;;;;20.86;51.03;95677.78;21176691;27;20046;-53
2023/12/24 17:59:21;;;;;;;2.45;0.93;;;;;;;20.30;45.88;95679.78;21169411;27;20177;-56
2023/12/24 18:09:41;;;;;;;1.73;0.88;;;;;;;20.34;44.28;95706.91;21187589;27;20100;-54
2023/12/24 18:20:02;;;;;;;6.60;1.63;;;;;;;20.09;46.16;95704.47;21133371;27;20065;-57
2023/12/24 18:30:22;;;;;;;3.72;1.50;;;;;;;20.43;48.23;95674.25;21141634;27;20396;-57
2023/12/24 18:40:42;;;;;;;92.07;50.53;;;;;;;20.64;49.70;95699.03;21149278;27;20053;-52
2023/12/24 18:51:03;;;;;;;63.30;28.58;;;;;;;20.69;50.61;95685.19;21172427;27;20039;-46
2023/12/24 19:01:23;;;;;;;83.05;38.08;;;;;;;20.65;50.99;95705.22;21175346;28;20444;-48
2023/12/24 19:11:44;;;;;;;27.58;13.15;;;;;;;20.02;45.54;95690.03;21143478;28;20396;-48
2023/12/24 19:22:06;;;;;;;4.10;1.90;;;;;;;17.73;46.02;95709.84;21134822;28;20048;-54
2023/12/24 19:32:26;;;;;;;6.25;2.20;;;;;;;18.34;46.61;95708.97;21148961;28;20055;-55
2023/12/24 19:42:45;;;;;;;11.13;2.88;;;;;;;19.38;46.19;95711.69;21133649;28;20036;-55
2023/12/24 19:53:04;;;;;;;10.85;2.58;;;;;;;19.71;46.72;95705.13;21129759;27;20047;-59
2023/12/24 20:03:24;;;;;;;9.07;3.20;;;;;;;19.87;47.67;95662.66;21178973;27;20047;-56
2023/12/24 20:13:43;;;;;;;7.93;3.30;;;;;;;19.97;48.31;95652.44;21136848;27;20051;-56
2023/12/24 20:24:02;;;;;;;9.45;3.45;;;;;;;20.06;48.65;95683.53;21138056;27;20043;-58
2023/12/24 20:34:22;;;;;;;12.50;4.25;;;;;;;20.14;48.93;95670.97;21147619;27;20058;-62
2023/12/24 20:44:43;;;;;;;10.55;3.58;;;;;;;20.22;49.27;95667.25;21156609;27;20062;-55
2023/12/24 20:55:03;;;;;;;8.13;3.13;;;;;;;20.31;49.52;95673.25;21131560;27;20052;-54
2023/12/24 21:05:22;;;;;;;6.05;3.30;;;;;;;20.38;49.72;95669.88;21124279;27;20051;-58
2023/12/24 21:15:42;;;;;;;8.73;3.85;;;;;;;20.42;49.91;95662.63;21121191;27;20047;-58
2023/12/24 21:26:01;;;;;;;6.47;3.50;;;;;;;20.46;49.96;95692.44;21147329;27;20052;-58
2023/12/24 21:36:21;;;;;;;7.30;3.28;;;;;;;20.46;50.12;95714.88;21145497;27;20462;-58
2023/12/24 21:46:44;;;;;;;8.07;3.30;;;;;;;20.49;50.41;95679.00;21174214;27;20097;-58
2023/12/24 21:57:03;;;;;;;9.70;3.22;;;;;;;20.47;50.27;95658.84;21121073;27;20054;-58
2023/12/24 22:07:23;;;;;;;6.15;2.72;;;;;;;20.45;50.39;95661.13;21131911;27;20432;-58
2023/12/24 22:17:43;;;;;;;4.65;2.90;;;;;;;20.45;50.59;95651.09;21140445;27;20076;-57
2023/12/24 22:28:03;;;;;;;5.65;2.85;;;;;;;20.45;50.81;95671.97;21141395;27;20058;-57
2023/12/24 22:38:23;;;;;;;7.10;3.63;;;;;;;20.47;51.80;95672.38;21125089;28;20043;-57
2023/12/24 22:48:42;;;;;;;8.15;4.07;;;;;;;20.49;52.15;95697.94;21111046;28;20043;-56
2023/12/24 22:59:01;;;;;;;5.63;2.83;;;;;;;20.47;52.45;95691.31;21152903;28;20044;-56
2023/12/24 23:09:21;;;;;;;6.22;3.63;;;;;;;20.48;53.04;95695.56;21154040;28;20043;-57
2023/12/24 23:19:40;;;;;;;7.13;3.20;;;;;;;20.42;53.57;95718.66;21150521;28;20475;-54
2023/12/24 23:29:59;;;;;;;6.47;3.45;;;;;;;20.40;53.79;95729.81;21150081;27;20047;-54
2023/12/24 23:40:19;;;;;;;6.20;2.95;;;;;;;20.41;54.41;95736.03;21152292;27;20054;-52
2023/12/24 23:50:38;;;;;;;8.63;3.20;;;;;;;20.38;54.94;95736.72;21134740;27;20479;-54
